sensor_id;sensor_type;location;lat;lon;timestamp;P1;durP1;ratioP1;P2;durP2;ratioP2
6077;SDS011;3067;49.470;10.394;2022-07-29T00:00:49;3.87;;;3.50;;
6077;SDS011;3067;49.470;10.394;2022-07-29T00:03:16;4.13;;;3.30;;
6077;SDS011;3067;49.470;10.394;2022-07-29T00:05:44;4.80;;;3.10;;
6077;SDS011;3067;49.470;10.394;2022-07-29T00:08:11;3.60;;;3.40;;
6077;SDS011;3067;49.470;10.394;2022-07-29T00:10:40;5.57;;;3.37;;
6077;SDS011;3067;49.470;10.394;2022-07-29T00:13:07;6.10;;;3.10;;
6077;SDS011;3067;49.470;10.394;2022-07-29T00:15:34;3.10;;;2.93;;
6077;SDS011;3067;49.470;10.394;2022-07-29T00:18:02;4.50;;;3.20;;
6077;SDS011;3067;49.470;10.394;2022-07-29T00:20:29;4.73;;;3.57;;
6077;SDS011;3067;49.470;10.394;2022-07-29T00:22:57;8.10;;;3.37;;
6077;SDS011;3067;49.470;10.394;2022-07-29T00:25:24;3.27;;;2.97;;
6077;SDS011;3067;49.470;10.394;2022-07-29T00:27:53;7.27;;;3.20;;
6077;SDS011;3067;49.470;10.394;2022-07-29T00:30:20;8.50;;;3.83;;
6077;SDS011;3067;49.470;10.394;2022-07-29T00:32:48;9.23;;;3.80;;
6077;SDS011;3067;49.470;10.394;2022-07-29T00:35:15;13.80;;;4.17;;
6077;SDS011;3067;49.470;10.394;2022-07-29T00:38:00;6.83;;;3.80;;
6077;SDS011;3067;49.470;10.394;2022-07-29T00:40:27;10.93;;;3.47;;
6077;SDS011;3067;49.470;10.394;2022-07-29T00:42:56;6.97;;;3.60;;
6077;SDS011;3067;49.470;10.394;2022-07-29T00:45:23;6.73;;;3.80;;
6077;SDS011;3067;49.470;10.394;2022-07-29T00:47:51;9.00;;;3.50;;
6077;SDS011;3067;49.470;10.394;2022-07-29T00:50:18;10.33;;;3.20;;
6077;SDS011;3067;49.470;10.394;2022-07-29T00:52:46;5.90;;;3.83;;
6077;SDS011;3067;49.470;10.394;2022-07-29T00:55:14;4.10;;;3.37;;
6077;SDS011;3067;49.470;10.394;2022-07-29T00:57:42;6.83;;;3.70;;
6077;SDS011;3067;49.470;10.394;2022-07-29T01:00:12;3.90;;;3.60;;
6077;SDS011;3067;49.470;10.394;2022-07-29T01:02:40;5.47;;;3.00;;
6077;SDS011;3067;49.470;10.394;2022-07-29T01:05:07;4.80;;;3.20;;
6077;SDS011;3067;49.470;10.394;2022-07-29T01:07:35;3.90;;;3.33;;
6077;SDS011;3067;49.470;10.394;2022-07-29T01:10:03;4.43;;;3.50;;
6077;SDS011;3067;49.470;10.394;2022-07-29T01:12:31;4.00;;;3.60;;
6077;SDS011;3067;49.470;10.394;2022-07-29T01:14:59;13.03;;;3.90;;
6077;SDS011;3067;49.470;10.394;2022-07-29T01:17:31;3.47;;;3.10;;
6077;SDS011;3067;49.470;10.394;2022-07-29T01:20:01;9.40;;;3.40;;
6077;SDS011;3067;49.470;10.394;2022-07-29T01:22:35;7.77;;;3.53;;
6077;SDS011;3067;49.470;10.394;2022-07-29T01:25:06;23.73;;;4.40;;
6077;SDS011;3067;49.470;10.394;2022-07-29T01:27:43;3.87;;;3.53;;
6077;SDS011;3067;49.470;10.394;2022-07-29T01:30:16;3.90;;;3.70;;
6077;SDS011;3067;49.470;10.394;2022-07-29T01:32:44;5.03;;;3.37;;
6077;SDS011;3067;49.470;10.394;2022-07-29T01:35:13;7.33;;;4.20;;
6077;SDS011;3067;49.470;10.394;2022-07-29T01:37:44;16.73;;;3.90;;
6077;SDS011;3067;49.470;10.394;2022-07-29T01:40:14;7.73;;;3.73;;
6077;SDS011;3067;49.470;10.394;2022-07-29T01:42:47;8.43;;;3.73;;
6077;SDS011;3067;49.470;10.394;2022-07-29T01:45:18;4.27;;;3.93;;
6077;SDS011;3067;49.470;10.394;2022-07-29T01:47:53;8.07;;;3.50;;
6077;SDS011;3067;49.470;10.394;2022-07-29T01:50:22;5.03;;;3.83;;
6077;SDS011;3067;49.470;10.394;2022-07-29T01:52:54;6.63;;;4.10;;
6077;SDS011;3067;49.470;10.394;2022-07-29T01:55:24;6.23;;;3.80;;
6077;SDS011;3067;49.470;10.394;2022-07-29T01:57:52;5.13;;;3.80;;
6077;SDS011;3067;49.470;10.394;2022-07-29T02:00:22;9.43;;;3.70;;
6077;SDS011;3067;49.470;10.394;2022-07-29T02:02:50;7.43;;;3.67;;
6077;SDS011;3067;49.470;10.394;2022-07-29T02:05:18;7.00;;;3.90;;
6077;SDS011;3067;49.470;10.394;2022-07-29T02:07:46;4.30;;;3.90;;
6077;SDS011;3067;49.470;10.394;2022-07-29T02:10:14;12.40;;;4.07;;
6077;SDS011;3067;49.470;10.394;2022-07-29T02:12:43;7.83;;;3.53;;
6077;SDS011;3067;49.470;10.394;2022-07-29T02:15:11;7.20;;;4.00;;
6077;SDS011;3067;49.470;10.394;2022-07-29T02:17:41;9.13;;;4.20;;
6077;SDS011;3067;49.470;10.394;2022-07-29T02:20:09;14.30;;;3.90;;
6077;SDS011;3067;49.470;10.394;2022-07-29T02:22:37;14.33;;;4.03;;
6077;SDS011;3067;49.470;10.394;2022-07-29T02:25:05;4.67;;;4.10;;
6077;SDS011;3067;49.470;10.394;2022-07-29T02:27:33;13.57;;;3.70;;
6077;SDS011;3067;49.470;10.394;2022-07-29T02:30:00;6.57;;;4.50;;
6077;SDS011;3067;49.470;10.394;2022-07-29T02:32:28;5.13;;;4.00;;
6077;SDS011;3067;49.470;10.394;2022-07-29T02:34:57;4.00;;;3.70;;
6077;SDS011;3067;49.470;10.394;2022-07-29T02:37:25;4.73;;;4.33;;
6077;SDS011;3067;49.470;10.394;2022-07-29T02:39:54;19.30;;;3.93;;
6077;SDS011;3067;49.470;10.394;2022-07-29T02:42:22;11.53;;;4.20;;
6077;SDS011;3067;49.470;10.394;2022-07-29T02:44:51;11.67;;;4.03;;
6077;SDS011;3067;49.470;10.394;2022-07-29T02:47:18;15.00;;;3.80;;
6077;SDS011;3067;49.470;10.394;2022-07-29T02:49:48;5.43;;;3.83;;
6077;SDS011;3067;49.470;10.394;2022-07-29T02:52:21;5.87;;;3.93;;
6077;SDS011;3067;49.470;10.394;2022-07-29T02:54:51;4.43;;;3.70;;
6077;SDS011;3067;49.470;10.394;2022-07-29T02:57:21;4.70;;;4.40;;
6077;SDS011;3067;49.470;10.394;2022-07-29T02:59:50;7.43;;;4.20;;
6077;SDS011;3067;49.470;10.394;2022-07-29T03:02:18;8.40;;;4.73;;
6077;SDS011;3067;49.470;10.394;2022-07-29T03:04:47;8.23;;;5.10;;
6077;SDS011;3067;49.470;10.394;2022-07-29T03:07:15;6.37;;;4.83;;
6077;SDS011;3067;49.470;10.394;2022-07-29T03:09:46;10.13;;;4.20;;
6077;SDS011;3067;49.470;10.394;2022-07-29T03:12:14;4.70;;;4.30;;
6077;SDS011;3067;49.470;10.394;2022-07-29T03:14:42;4.90;;;4.50;;
6077;SDS011;3067;49.470;10.394;2022-07-29T03:17:10;12.53;;;4.77;;
6077;SDS011;3067;49.470;10.394;2022-07-29T03:19:38;6.77;;;4.20;;
6077;SDS011;3067;49.470;10.394;2022-07-29T03:22:06;4.73;;;4.23;;
6077;SDS011;3067;49.470;10.394;2022-07-29T03:24:34;7.80;;;4.63;;
6077;SDS011;3067;49.470;10.394;2022-07-29T03:27:03;8.83;;;4.70;;
6077;SDS011;3067;49.470;10.394;2022-07-29T03:29:30;4.80;;;4.37;;
6077;SDS011;3067;49.470;10.394;2022-07-29T03:31:58;5.23;;;4.30;;
6077;SDS011;3067;49.470;10.394;2022-07-29T03:34:25;9.87;;;4.60;;
6077;SDS011;3067;49.470;10.394;2022-07-29T03:36:53;8.03;;;4.20;;
6077;SDS011;3067;49.470;10.394;2022-07-29T03:39:21;4.40;;;4.10;;
6077;SDS011;3067;49.470;10.394;2022-07-29T03:41:49;5.87;;;4.20;;
6077;SDS011;3067;49.470;10.394;2022-07-29T03:44:20;8.73;;;4.40;;
6077;SDS011;3067;49.470;10.394;2022-07-29T03:46:48;5.43;;;4.80;;
6077;SDS011;3067;49.470;10.394;2022-07-29T03:49:16;5.70;;;4.60;;
6077;SDS011;3067;49.470;10.394;2022-07-29T03:51:44;10.10;;;4.80;;
6077;SDS011;3067;49.470;10.394;2022-07-29T03:54:11;5.77;;;5.27;;
6077;SDS011;3067;49.470;10.394;2022-07-29T03:56:43;4.77;;;4.43;;
6077;SDS011;3067;49.470;10.394;2022-07-29T03:59:12;4.93;;;4.43;;
6077;SDS011;3067;49.470;10.394;2022-07-29T04:01:41;15.73;;;4.97;;
6077;SDS011;3067;49.470;10.394;2022-07-29T04:04:09;14.07;;;5.00;;
6077;SDS011;3067;49.470;10.394;2022-07-29T04:06:37;7.10;;;4.87;;
6077;SDS011;3067;49.470;10.394;2022-07-29T04:09:05;5.27;;;4.20;;
6077;SDS011;3067;49.470;10.394;2022-07-29T04:11:32;5.57;;;4.80;;
6077;SDS011;3067;49.470;10.394;2022-07-29T04:14:00;6.80;;;5.03;;
6077;SDS011;3067;49.470;10.394;2022-07-29T04:16:27;12.50;;;4.87;;
6077;SDS011;3067;49.470;10.394;2022-07-29T04:18:56;6.83;;;4.40;;
6077;SDS011;3067;49.470;10.394;2022-07-29T04:21:23;5.00;;;4.60;;
6077;SDS011;3067;49.470;10.394;2022-07-29T04:23:51;7.77;;;4.67;;
6077;SDS011;3067;49.470;10.394;2022-07-29T04:26:18;8.33;;;4.87;;
6077;SDS011;3067;49.470;10.394;2022-07-29T04:28:46;5.67;;;4.47;;
6077;SDS011;3067;49.470;10.394;2022-07-29T04:31:13;11.03;;;4.60;;
6077;SDS011;3067;49.470;10.394;2022-07-29T04:33:41;6.80;;;5.20;;
6077;SDS011;3067;49.470;10.394;2022-07-29T04:36:09;5.10;;;4.60;;
6077;SDS011;3067;49.470;10.394;2022-07-29T04:38:37;8.50;;;4.90;;
6077;SDS011;3067;49.470;10.394;2022-07-29T04:41:05;9.63;;;5.20;;
6077;SDS011;3067;49.470;10.394;2022-07-29T04:43:33;9.77;;;5.43;;
6077;SDS011;3067;49.470;10.394;2022-07-29T04:46:01;8.80;;;5.20;;
6077;SDS011;3067;49.470;10.394;2022-07-29T04:48:28;5.73;;;5.10;;
6077;SDS011;3067;49.470;10.394;2022-07-29T04:50:56;8.73;;;4.40;;
6077;SDS011;3067;49.470;10.394;2022-07-29T04:53:25;10.40;;;4.87;;
6077;SDS011;3067;49.470;10.394;2022-07-29T04:55:52;10.33;;;5.00;;
6077;SDS011;3067;49.470;10.394;2022-07-29T04:58:19;7.93;;;4.80;;
6077;SDS011;3067;49.470;10.394;2022-07-29T05:00:48;6.40;;;4.77;;
6077;SDS011;3067;49.470;10.394;2022-07-29T05:03:15;10.43;;;5.53;;
6077;SDS011;3067;49.470;10.394;2022-07-29T05:05:43;7.23;;;4.60;;
6077;SDS011;3067;49.470;10.394;2022-07-29T05:08:10;7.63;;;5.27;;
6077;SDS011;3067;49.470;10.394;2022-07-29T05:10:39;5.23;;;4.83;;
6077;SDS011;3067;49.470;10.394;2022-07-29T05:13:06;6.23;;;5.10;;
6077;SDS011;3067;49.470;10.394;2022-07-29T05:15:34;5.73;;;5.13;;
6077;SDS011;3067;49.470;10.394;2022-07-29T05:18:02;5.17;;;4.67;;
6077;SDS011;3067;49.470;10.394;2022-07-29T05:20:29;8.87;;;5.90;;
6077;SDS011;3067;49.470;10.394;2022-07-29T05:23:00;11.00;;;4.90;;
6077;SDS011;3067;49.470;10.394;2022-07-29T05:25:28;5.83;;;5.17;;
6077;SDS011;3067;49.470;10.394;2022-07-29T05:27:57;5.00;;;4.60;;
6077;SDS011;3067;49.470;10.394;2022-07-29T05:30:25;5.57;;;4.97;;
6077;SDS011;3067;49.470;10.394;2022-07-29T05:32:52;7.80;;;4.93;;
6077;SDS011;3067;49.470;10.394;2022-07-29T05:35:19;5.37;;;4.97;;
6077;SDS011;3067;49.470;10.394;2022-07-29T05:37:47;5.40;;;5.00;;
6077;SDS011;3067;49.470;10.394;2022-07-29T05:40:14;15.87;;;5.00;;
6077;SDS011;3067;49.470;10.394;2022-07-29T05:42:41;7.90;;;4.67;;
6077;SDS011;3067;49.470;10.394;2022-07-29T05:45:10;9.03;;;4.83;;
6077;SDS011;3067;49.470;10.394;2022-07-29T05:47:38;6.03;;;4.80;;
6077;SDS011;3067;49.470;10.394;2022-07-29T05:50:05;5.30;;;4.33;;
6077;SDS011;3067;49.470;10.394;2022-07-29T05:52:33;22.00;;;5.30;;
6077;SDS011;3067;49.470;10.394;2022-07-29T05:55:01;7.60;;;4.60;;
6077;SDS011;3067;49.470;10.394;2022-07-29T05:57:30;7.87;;;4.13;;
6077;SDS011;3067;49.470;10.394;2022-07-29T05:59:58;3.93;;;3.57;;
6077;SDS011;3067;49.470;10.394;2022-07-29T06:02:26;4.17;;;3.80;;
6077;SDS011;3067;49.470;10.394;2022-07-29T06:04:54;4.40;;;4.00;;
6077;SDS011;3067;49.470;10.394;2022-07-29T06:07:21;3.70;;;3.50;;
6077;SDS011;3067;49.470;10.394;2022-07-29T06:09:48;5.27;;;4.17;;
6077;SDS011;3067;49.470;10.394;2022-07-29T06:12:16;5.00;;;3.77;;
6077;SDS011;3067;49.470;10.394;2022-07-29T06:14:44;4.20;;;3.90;;
6077;SDS011;3067;49.470;10.394;2022-07-29T06:17:12;6.13;;;4.23;;
6077;SDS011;3067;49.470;10.394;2022-07-29T06:19:40;4.40;;;4.00;;
6077;SDS011;3067;49.470;10.394;2022-07-29T06:22:08;3.90;;;3.50;;
6077;SDS011;3067;49.470;10.394;2022-07-29T06:24:35;5.43;;;3.60;;
6077;SDS011;3067;49.470;10.394;2022-07-29T06:27:06;3.80;;;3.50;;
6077;SDS011;3067;49.470;10.394;2022-07-29T06:29:35;5.30;;;3.53;;
6077;SDS011;3067;49.470;10.394;2022-07-29T06:32:02;3.90;;;3.60;;
6077;SDS011;3067;49.470;10.394;2022-07-29T06:34:29;3.60;;;3.30;;
6077;SDS011;3067;49.470;10.394;2022-07-29T06:36:58;6.93;;;3.67;;
6077;SDS011;3067;49.470;10.394;2022-07-29T06:39:26;4.27;;;3.73;;
6077;SDS011;3067;49.470;10.394;2022-07-29T06:41:54;3.80;;;3.50;;
6077;SDS011;3067;49.470;10.394;2022-07-29T06:44:21;7.73;;;3.83;;
6077;SDS011;3067;49.470;10.394;2022-07-29T06:46:49;4.10;;;3.70;;
6077;SDS011;3067;49.470;10.394;2022-07-29T06:49:18;9.50;;;4.47;;
6077;SDS011;3067;49.470;10.394;2022-07-29T06:51:45;3.93;;;3.63;;
6077;SDS011;3067;49.470;10.394;2022-07-29T06:54:14;5.90;;;3.43;;
6077;SDS011;3067;49.470;10.394;2022-07-29T06:56:41;3.90;;;3.47;;
6077;SDS011;3067;49.470;10.394;2022-07-29T06:59:09;3.77;;;3.57;;
6077;SDS011;3067;49.470;10.394;2022-07-29T07:01:37;5.63;;;3.67;;
6077;SDS011;3067;49.470;10.394;2022-07-29T07:04:04;4.20;;;3.90;;
6077;SDS011;3067;49.470;10.394;2022-07-29T07:06:33;4.23;;;3.80;;
6077;SDS011;3067;49.470;10.394;2022-07-29T07:09:01;3.87;;;3.60;;
6077;SDS011;3067;49.470;10.394;2022-07-29T07:11:29;3.77;;;3.37;;
6077;SDS011;3067;49.470;10.394;2022-07-29T07:13:57;6.07;;;3.70;;
6077;SDS011;3067;49.470;10.394;2022-07-29T07:16:24;4.37;;;3.90;;
6077;SDS011;3067;49.470;10.394;2022-07-29T07:18:51;4.57;;;3.53;;
6077;SDS011;3067;49.470;10.394;2022-07-29T07:21:19;3.90;;;3.30;;
6077;SDS011;3067;49.470;10.394;2022-07-29T07:23:46;8.60;;;3.30;;
6077;SDS011;3067;49.470;10.394;2022-07-29T07:26:13;4.17;;;3.30;;
6077;SDS011;3067;49.470;10.394;2022-07-29T07:28:42;5.33;;;3.67;;
6077;SDS011;3067;49.470;10.394;2022-07-29T07:31:09;6.53;;;3.57;;
6077;SDS011;3067;49.470;10.394;2022-07-29T07:33:37;3.27;;;3.17;;
6077;SDS011;3067;49.470;10.394;2022-07-29T07:36:04;4.77;;;3.20;;
6077;SDS011;3067;49.470;10.394;2022-07-29T07:38:32;4.10;;;3.70;;
6077;SDS011;3067;49.470;10.394;2022-07-29T07:40:59;3.10;;;2.93;;
6077;SDS011;3067;49.470;10.394;2022-07-29T07:43:27;3.40;;;3.20;;
6077;SDS011;3067;49.470;10.394;2022-07-29T07:45:57;3.63;;;3.40;;
6077;SDS011;3067;49.470;10.394;2022-07-29T07:48:24;3.20;;;3.00;;
6077;SDS011;3067;49.470;10.394;2022-07-29T07:50:51;4.83;;;3.10;;
6077;SDS011;3067;49.470;10.394;2022-07-29T07:53:19;3.07;;;2.87;;
6077;SDS011;3067;49.470;10.394;2022-07-29T07:55:46;4.20;;;2.70;;
6077;SDS011;3067;49.470;10.394;2022-07-29T07:58:13;3.13;;;2.93;;
6077;SDS011;3067;49.470;10.394;2022-07-29T08:00:41;3.20;;;2.87;;
6077;SDS011;3067;49.470;10.394;2022-07-29T08:03:09;3.80;;;2.80;;
6077;SDS011;3067;49.470;10.394;2022-07-29T08:05:38;3.33;;;2.60;;
6077;SDS011;3067;49.470;10.394;2022-07-29T08:08:05;2.80;;;2.70;;
6077;SDS011;3067;49.470;10.394;2022-07-29T08:10:32;3.23;;;2.60;;
6077;SDS011;3067;49.470;10.394;2022-07-29T08:13:19;3.10;;;3.00;;
6077;SDS011;3067;49.470;10.394;2022-07-29T08:15:46;2.93;;;2.70;;
6077;SDS011;3067;49.470;10.394;2022-07-29T08:18:23;2.30;;;2.20;;
6077;SDS011;3067;49.470;10.394;2022-07-29T08:20:51;2.90;;;2.70;;
6077;SDS011;3067;49.470;10.394;2022-07-29T08:23:18;2.40;;;2.30;;
6077;SDS011;3067;49.470;10.394;2022-07-29T08:25:46;2.60;;;2.50;;
6077;SDS011;3067;49.470;10.394;2022-07-29T08:28:13;3.40;;;3.10;;
6077;SDS011;3067;49.470;10.394;2022-07-29T08:30:40;2.97;;;2.87;;
6077;SDS011;3067;49.470;10.394;2022-07-29T08:33:08;3.83;;;2.70;;
6077;SDS011;3067;49.470;10.394;2022-07-29T08:35:38;3.00;;;2.70;;
6077;SDS011;3067;49.470;10.394;2022-07-29T08:38:05;2.47;;;2.37;;
6077;SDS011;3067;49.470;10.394;2022-07-29T08:40:32;2.60;;;2.50;;
6077;SDS011;3067;49.470;10.394;2022-07-29T08:43:03;2.33;;;2.23;;
6077;SDS011;3067;49.470;10.394;2022-07-29T08:45:34;2.80;;;2.63;;
6077;SDS011;3067;49.470;10.394;2022-07-29T08:48:04;2.50;;;2.40;;
6077;SDS011;3067;49.470;10.394;2022-07-29T08:50:31;4.60;;;2.20;;
6077;SDS011;3067;49.470;10.394;2022-07-29T08:53:00;2.70;;;2.50;;
6077;SDS011;3067;49.470;10.394;2022-07-29T08:55:27;2.50;;;2.40;;
6077;SDS011;3067;49.470;10.394;2022-07-29T08:57:55;4.83;;;2.30;;
6077;SDS011;3067;49.470;10.394;2022-07-29T09:00:22;2.50;;;2.40;;
6077;SDS011;3067;49.470;10.394;2022-07-29T09:02:51;3.63;;;2.20;;
6077;SDS011;3067;49.470;10.394;2022-07-29T09:05:23;2.70;;;2.50;;
6077;SDS011;3067;49.470;10.394;2022-07-29T09:07:51;2.67;;;2.57;;
6077;SDS011;3067;49.470;10.394;2022-07-29T09:10:20;2.97;;;2.77;;
6077;SDS011;3067;49.470;10.394;2022-07-29T09:12:48;2.47;;;2.37;;
6077;SDS011;3067;49.470;10.394;2022-07-29T09:15:15;2.20;;;2.10;;
6077;SDS011;3067;49.470;10.394;2022-07-29T09:17:43;2.40;;;2.30;;
6077;SDS011;3067;49.470;10.394;2022-07-29T09:20:11;2.70;;;2.50;;
6077;SDS011;3067;49.470;10.394;2022-07-29T09:22:39;3.07;;;2.67;;
6077;SDS011;3067;49.470;10.394;2022-07-29T09:25:06;2.87;;;2.67;;
6077;SDS011;3067;49.470;10.394;2022-07-29T09:27:35;2.40;;;2.30;;
6077;SDS011;3067;49.470;10.394;2022-07-29T09:30:03;2.27;;;2.17;;
6077;SDS011;3067;49.470;10.394;2022-07-29T09:32:30;2.33;;;2.23;;
6077;SDS011;3067;49.470;10.394;2022-07-29T09:35:14;4.20;;;2.17;;
6077;SDS011;3067;49.470;10.394;2022-07-29T09:37:43;2.30;;;2.20;;
6077;SDS011;3067;49.470;10.394;2022-07-29T09:40:14;2.40;;;2.20;;
6077;SDS011;3067;49.470;10.394;2022-07-29T09:42:43;7.10;;;2.27;;
6077;SDS011;3067;49.470;10.394;2022-07-29T09:45:11;2.70;;;2.60;;
6077;SDS011;3067;49.470;10.394;2022-07-29T09:47:42;2.80;;;2.70;;
6077;SDS011;3067;49.470;10.394;2022-07-29T09:50:12;2.70;;;2.60;;
6077;SDS011;3067;49.470;10.394;2022-07-29T09:52:46;4.73;;;2.53;;
6077;SDS011;3067;49.470;10.394;2022-07-29T09:55:13;2.17;;;2.07;;
6077;SDS011;3067;49.470;10.394;2022-07-29T09:57:43;2.10;;;2.00;;
6077;SDS011;3067;49.470;10.394;2022-07-29T10:00:11;2.00;;;1.80;;
6077;SDS011;3067;49.470;10.394;2022-07-29T10:02:40;1.77;;;1.67;;
6077;SDS011;3067;49.470;10.394;2022-07-29T10:05:16;1.50;;;1.50;;
6077;SDS011;3067;49.470;10.394;2022-07-29T10:07:44;1.37;;;1.37;;
6077;SDS011;3067;49.470;10.394;2022-07-29T10:10:18;1.70;;;1.67;;
6077;SDS011;3067;49.470;10.394;2022-07-29T10:12:50;1.40;;;1.40;;
6077;SDS011;3067;49.470;10.394;2022-07-29T10:15:18;1.53;;;1.43;;
6077;SDS011;3067;49.470;10.394;2022-07-29T10:17:45;1.50;;;1.40;;
6077;SDS011;3067;49.470;10.394;2022-07-29T10:20:14;1.67;;;1.60;;
6077;SDS011;3067;49.470;10.394;2022-07-29T10:22:42;1.60;;;1.60;;
6077;SDS011;3067;49.470;10.394;2022-07-29T10:25:12;1.60;;;1.50;;
6077;SDS011;3067;49.470;10.394;2022-07-29T10:27:40;1.47;;;1.47;;
6077;SDS011;3067;49.470;10.394;2022-07-29T10:30:10;1.30;;;1.30;;
6077;SDS011;3067;49.470;10.394;2022-07-29T10:32:51;1.27;;;1.23;;
6077;SDS011;3067;49.470;10.394;2022-07-29T10:35:24;1.33;;;1.07;;
6077;SDS011;3067;49.470;10.394;2022-07-29T10:40:42;1.20;;;1.20;;
6077;SDS011;3067;49.470;10.394;2022-07-29T10:43:31;1.07;;;1.07;;
6077;SDS011;3067;49.470;10.394;2022-07-29T10:46:02;1.73;;;1.63;;
6077;SDS011;3067;49.470;10.394;2022-07-29T10:48:30;1.80;;;1.30;;
6077;SDS011;3067;49.470;10.394;2022-07-29T10:50:58;2.03;;;1.37;;
6077;SDS011;3067;49.470;10.394;2022-07-29T10:56:13;1.50;;;1.40;;
6077;SDS011;3067;49.470;10.394;2022-07-29T11:01:34;1.13;;;1.13;;
6077;SDS011;3067;49.470;10.394;2022-07-29T11:04:01;1.33;;;1.33;;
6077;SDS011;3067;49.470;10.394;2022-07-29T11:09:15;1.35;;;1.20;;
6077;SDS011;3067;49.470;10.394;2022-07-29T11:11:43;3.90;;;1.23;;
6077;SDS011;3067;49.470;10.394;2022-07-29T11:14:10;1.30;;;1.30;;
6077;SDS011;3067;49.470;10.394;2022-07-29T11:19:36;1.33;;;1.20;;
6077;SDS011;3067;49.470;10.394;2022-07-29T11:22:07;1.30;;;1.30;;
6077;SDS011;3067;49.470;10.394;2022-07-29T11:24:35;2.25;;;1.50;;
6077;SDS011;3067;49.470;10.394;2022-07-29T11:27:09;1.25;;;1.25;;
6077;SDS011;3067;49.470;10.394;2022-07-29T11:29:38;1.40;;;1.30;;
6077;SDS011;3067;49.470;10.394;2022-07-29T11:32:09;3.63;;;1.20;;
6077;SDS011;3067;49.470;10.394;2022-07-29T11:34:38;1.50;;;1.30;;
6077;SDS011;3067;49.470;10.394;2022-07-29T11:40:11;1.30;;;1.30;;
6077;SDS011;3067;49.470;10.394;2022-07-29T11:42:39;1.90;;;1.40;;
6077;SDS011;3067;49.470;10.394;2022-07-29T11:45:09;1.83;;;1.37;;
6077;SDS011;3067;49.470;10.394;2022-07-29T11:47:39;1.37;;;1.37;;
6077;SDS011;3067;49.470;10.394;2022-07-29T11:50:09;1.43;;;1.30;;
6077;SDS011;3067;49.470;10.394;2022-07-29T11:52:37;6.80;;;1.93;;
6077;SDS011;3067;49.470;10.394;2022-07-29T11:55:09;1.83;;;1.73;;
6077;SDS011;3067;49.470;10.394;2022-07-29T11:57:37;2.07;;;1.60;;
6077;SDS011;3067;49.470;10.394;2022-07-29T12:00:06;1.80;;;1.63;;
6077;SDS011;3067;49.470;10.394;2022-07-29T12:02:39;3.23;;;2.00;;
6077;SDS011;3067;49.470;10.394;2022-07-29T12:05:09;8.97;;;2.30;;
6077;SDS011;3067;49.470;10.394;2022-07-29T12:07:37;2.60;;;1.73;;
6077;SDS011;3067;49.470;10.394;2022-07-29T12:10:05;2.00;;;1.80;;
6077;SDS011;3067;49.470;10.394;2022-07-29T12:12:36;2.40;;;1.80;;
6077;SDS011;3067;49.470;10.394;2022-07-29T12:15:14;2.53;;;2.00;;
6077;SDS011;3067;49.470;10.394;2022-07-29T12:17:45;1.50;;;1.50;;
6077;SDS011;3067;49.470;10.394;2022-07-29T12:20:21;1.77;;;1.77;;
6077;SDS011;3067;49.470;10.394;2022-07-29T12:22:49;1.90;;;1.90;;
6077;SDS011;3067;49.470;10.394;2022-07-29T12:25:18;1.70;;;1.50;;
6077;SDS011;3067;49.470;10.394;2022-07-29T12:27:46;1.67;;;1.60;;
6077;SDS011;3067;49.470;10.394;2022-07-29T12:30:14;1.93;;;1.83;;
6077;SDS011;3067;49.470;10.394;2022-07-29T12:32:43;2.00;;;1.90;;
6077;SDS011;3067;49.470;10.394;2022-07-29T12:35:11;3.50;;;2.00;;
6077;SDS011;3067;49.470;10.394;2022-07-29T12:37:41;3.47;;;2.00;;
6077;SDS011;3067;49.470;10.394;2022-07-29T12:40:09;15.47;;;2.43;;
6077;SDS011;3067;49.470;10.394;2022-07-29T12:42:37;2.00;;;1.90;;
6077;SDS011;3067;49.470;10.394;2022-07-29T12:45:06;1.80;;;1.80;;
6077;SDS011;3067;49.470;10.394;2022-07-29T12:47:37;1.90;;;1.83;;
6077;SDS011;3067;49.470;10.394;2022-07-29T12:50:17;1.73;;;1.73;;
6077;SDS011;3067;49.470;10.394;2022-07-29T12:52:46;3.00;;;2.00;;
6077;SDS011;3067;49.470;10.394;2022-07-29T12:55:14;1.90;;;1.90;;
6077;SDS011;3067;49.470;10.394;2022-07-29T12:57:44;1.70;;;1.70;;
6077;SDS011;3067;49.470;10.394;2022-07-29T13:00:13;1.70;;;1.60;;
6077;SDS011;3067;49.470;10.394;2022-07-29T13:02:41;2.97;;;1.80;;
6077;SDS011;3067;49.470;10.394;2022-07-29T13:05:09;3.63;;;1.80;;
6077;SDS011;3067;49.470;10.394;2022-07-29T13:07:37;7.60;;;1.90;;
6077;SDS011;3067;49.470;10.394;2022-07-29T13:10:13;1.90;;;1.80;;
6077;SDS011;3067;49.470;10.394;2022-07-29T13:15:27;1.70;;;1.60;;
6077;SDS011;3067;49.470;10.394;2022-07-29T13:17:55;1.63;;;1.53;;
6077;SDS011;3067;49.470;10.394;2022-07-29T13:20:23;1.87;;;1.30;;
6077;SDS011;3067;49.470;10.394;2022-07-29T13:22:52;1.40;;;1.30;;
6077;SDS011;3067;49.470;10.394;2022-07-29T13:25:25;1.50;;;1.50;;
6077;SDS011;3067;49.470;10.394;2022-07-29T13:27:52;1.60;;;1.50;;
6077;SDS011;3067;49.470;10.394;2022-07-29T13:30:20;2.03;;;1.83;;
6077;SDS011;3067;49.470;10.394;2022-07-29T13:32:48;2.13;;;2.03;;
6077;SDS011;3067;49.470;10.394;2022-07-29T13:35:16;2.40;;;2.10;;
6077;SDS011;3067;49.470;10.394;2022-07-29T13:37:44;4.10;;;2.07;;
6077;SDS011;3067;49.470;10.394;2022-07-29T13:40:12;2.27;;;2.17;;
6077;SDS011;3067;49.470;10.394;2022-07-29T13:42:41;3.23;;;1.60;;
6077;SDS011;3067;49.470;10.394;2022-07-29T13:45:09;6.77;;;1.63;;
6077;SDS011;3067;49.470;10.394;2022-07-29T13:47:37;4.83;;;2.00;;
6077;SDS011;3067;49.470;10.394;2022-07-29T13:50:05;1.90;;;1.80;;
6077;SDS011;3067;49.470;10.394;2022-07-29T13:52:33;1.50;;;1.50;;
6077;SDS011;3067;49.470;10.394;2022-07-29T13:55:00;2.23;;;1.57;;
6077;SDS011;3067;49.470;10.394;2022-07-29T13:57:28;2.00;;;1.40;;
6077;SDS011;3067;49.470;10.394;2022-07-29T13:59:57;2.40;;;1.47;;
6077;SDS011;3067;49.470;10.394;2022-07-29T14:02:24;13.40;;;2.10;;
6077;SDS011;3067;49.470;10.394;2022-07-29T14:04:52;3.17;;;1.93;;
6077;SDS011;3067;49.470;10.394;2022-07-29T14:07:19;13.00;;;3.27;;
6077;SDS011;3067;49.470;10.394;2022-07-29T14:09:46;10.30;;;3.90;;
6077;SDS011;3067;49.470;10.394;2022-07-29T14:12:14;9.60;;;4.13;;
6077;SDS011;3067;49.470;10.394;2022-07-29T14:14:41;7.60;;;4.70;;
6077;SDS011;3067;49.470;10.394;2022-07-29T14:17:10;5.20;;;4.27;;
6077;SDS011;3067;49.470;10.394;2022-07-29T14:19:37;9.70;;;4.20;;
6077;SDS011;3067;49.470;10.394;2022-07-29T14:22:05;6.33;;;3.97;;
6077;SDS011;3067;49.470;10.394;2022-07-29T14:24:32;5.10;;;4.17;;
6077;SDS011;3067;49.470;10.394;2022-07-29T14:27:00;6.90;;;4.37;;
6077;SDS011;3067;49.470;10.394;2022-07-29T14:29:27;4.93;;;4.10;;
6077;SDS011;3067;49.470;10.394;2022-07-29T14:31:55;4.50;;;4.10;;
6077;SDS011;3067;49.470;10.394;2022-07-29T14:34:23;4.40;;;4.10;;
6077;SDS011;3067;49.470;10.394;2022-07-29T14:36:51;5.47;;;4.53;;
6077;SDS011;3067;49.470;10.394;2022-07-29T14:39:20;3.73;;;3.43;;
6077;SDS011;3067;49.470;10.394;2022-07-29T14:41:48;4.27;;;4.00;;
6077;SDS011;3067;49.470;10.394;2022-07-29T14:44:16;3.70;;;3.40;;
6077;SDS011;3067;49.470;10.394;2022-07-29T14:46:43;3.70;;;3.40;;
6077;SDS011;3067;49.470;10.394;2022-07-29T14:49:11;3.70;;;3.50;;
6077;SDS011;3067;49.470;10.394;2022-07-29T14:51:39;3.40;;;3.23;;
6077;SDS011;3067;49.470;10.394;2022-07-29T14:54:07;3.90;;;3.63;;
6077;SDS011;3067;49.470;10.394;2022-07-29T14:56:34;3.90;;;3.70;;
6077;SDS011;3067;49.470;10.394;2022-07-29T14:59:02;3.67;;;3.33;;
6077;SDS011;3067;49.470;10.394;2022-07-29T15:01:29;6.60;;;4.00;;
6077;SDS011;3067;49.470;10.394;2022-07-29T15:03:56;8.53;;;4.00;;
6077;SDS011;3067;49.470;10.394;2022-07-29T15:06:24;4.07;;;3.77;;
6077;SDS011;3067;49.470;10.394;2022-07-29T15:08:52;4.33;;;3.93;;
6077;SDS011;3067;49.470;10.394;2022-07-29T15:11:20;4.30;;;3.90;;
6077;SDS011;3067;49.470;10.394;2022-07-29T15:13:47;4.97;;;4.40;;
6077;SDS011;3067;49.470;10.394;2022-07-29T15:16:14;8.33;;;4.87;;
6077;SDS011;3067;49.470;10.394;2022-07-29T15:18:42;5.20;;;3.97;;
6077;SDS011;3067;49.470;10.394;2022-07-29T15:21:09;4.30;;;3.97;;
6077;SDS011;3067;49.470;10.394;2022-07-29T15:23:36;3.57;;;3.17;;
6077;SDS011;3067;49.470;10.394;2022-07-29T15:26:05;3.80;;;3.17;;
6077;SDS011;3067;49.470;10.394;2022-07-29T15:28:32;3.60;;;2.80;;